Tiempo atmosférico en la estación meteorológica de Arroyo Del Ojanco, Jaén (580 m.)



Fecha
DESCASC
Temp. máxima en grados centígrados (hora)
DESCASC
Temp. mínima en grados centígrados (hora)
DESCASC
Temp. media en grados centígrados
DESCASC
Racha de viento máxima en m/sg (hora)
DESCASC
Velocidad máxima media en intervalos de 10 minutos(hora)
DESCASC
Precipitaciones diarias en mm
DESCASC
Precipitaciones de 00:00 a 06:00 en mm
DESCASC
Precipitaciones de 06:00 a 12:00 en mm
DESCASC
Precipitaciones de 12:00 a 18:00 en mm
DESCASC
Precipitaciones de 18:00 a 24:00 en mm
DESCASC
22-04-2019 16.8 (18:00) 7.8 (04:30) 12.3 7.5 (18:50) 4.72 (17:00) 0.3 0.3 0 0 0
21-04-2019 12.8 (15:00) 9.2 (06:40) 11 8.89 (12:10) 5 (11:10) 0 0 0 0 0
20-04-2019 14.5 (14:20) 8.9 (03:40) 11.7 12.22 (15:00) 6.94 (15:30) 23.8 11.1 12.7 0 0
19-04-2019 14.5 (16:10) 9 (07:30) 11.8 6.11 (13:10) 4.17 (13:30) 1.9 1 0 0.7 0.2
18-04-2019 16.3 (00:10) 9.3 (00:00) 12.8 13.06 (18:40) 8.06 (18:40) 34.3 6.6 26.3 1 0.4
17-04-2019 27.8 (17:50) 9.9 (00:00) 18.8 13.33 (19:00) 8.06 (19:00) 0 0 0 0 0
16-04-2019 26.5 (18:40) 9.6 (00:00) 18.1 6.39 (00:10) 3.89 (10:50) 0 0 0 0 0
15-04-2019 25.6 (16:40) 10.7 (00:00) 18.2 11.11 (20:30) 6.39 (20:10) 0 0 0 0 0
14-04-2019 24.1 (18:10) 8.4 (00:00) 16.3 7.78 (17:30) 2.78 (14:40) 0 0 0 0 0
13-04-2019 21.4 (17:40) 4.6 (00:00) 13 6.94 (18:00) 3.33 (18:00) 0 0 0 0 0
12-04-2019 -- (--) -- (--) -- 11.39 (17:00) 3.33 (17:00) 0 0 0 0 0
11-04-2019 16.7 (18:00) 2.9 (00:00) 9.8 10.28 (16:10) 3.33 (16:10) 0 0 0 0 0
10-04-2019 13.8 (17:20) 5.9 (00:00) 9.9 10.56 (18:00) 6.67 (17:40) 6.5 0 0 0 6.5
09-04-2019 12.4 (18:50) 7.9 (00:00) 10.1 12.78 (19:00) 7.22 (19:00) 1.6 0.1 0.1 1.3 0.1
08-04-2019 13.8 (12:50) 9.4 (00:00) 11.6 10.28 (11:30) 6.39 (23:00) 16 0.5 2.1 1.6 11.8
07-04-2019 12.6 (16:00) 6.4 (00:00) 9.5 11.11 (07:30) 6.11 (07:00) 0.1 0.1 0 0 0
06-04-2019 10.7 (14:40) 5 (00:00) 7.8 11.67 (15:00) 6.94 (10:50) 12.3 5.3 1.6 2.2 3.2
05-04-2019 11.5 (00:10) 4.8 (00:00) 8.2 15 (16:00) 8.61 (16:00) 6.3 0 0.3 3.9 2.1
04-04-2019 -- (--) -- (--) -- -- (--) -- (--) -- 0 0 -- 0
03-04-2019 20 (17:50) 7.9 (00:00) 14 11.39 (17:40) 6.94 (16:10) 0 0 0 0 0
02-04-2019 19.4 (18:10) 10.2 (00:00) 14.8 7.22 (19:00) 5 (19:00) 0.6 0.6 0 0 0
01-04-2019 19.2 (17:10) 8.8 (00:00) 14 -- (--) -- (--) 0.3 0 0 0.1 0.2
31-03-2019 14.6 (00:20) 9.2 (00:00) 11.9 -- (--) -- (--) 11 4.8 5.7 0 0.5
30-03-2019 23.2 (16:00) 5.4 (00:00) 14.3 -- (--) -- (--) 0 0 0 0 0
29-03-2019 20.4 (17:00) 3.8 (00:00) 12.1 -- (--) -- (--) 0 0 0 0 0
28-03-2019 20.8 (16:00) 3.8 (00:00) 12.3 -- (--) -- (--) 0 0 0 0 0
27-03-2019 18.5 (16:20) 5.8 (00:00) 12.2 -- (--) -- (--) 0 0 0 0 0
26-03-2019 23.1 (15:30) 10.3 (00:00) 16.7 -- (--) -- (--) 0 0 0 0 0
25-03-2019 22.8 (16:10) 6.5 (00:00) 14.6 -- (--) -- (--) 0 0 0 0 0

Gráficas

Temp. máximas Temp. mínimas Temp. medias Precipitaciones Rachas de viento máximas Velocidades máximas media en intervalos de 10 minutos

Datos horarios

Fecha y hora oficial Temperatura (ºC) Velocidad del viento (km/h) Dirección del viento Racha (km/h) Dirección de racha Precipitación (mm) Presión (hPa) Tendencia (hPa) Humedad (%)
2019-04-23 23:00:00 6.9 0 Calma 23 Sur 0 930.4 1.7 89
2019-04-23 22:00:00 6.1 6 Sudoeste 18 Sudoeste 0.1 929.8 1.7 96
2019-04-23 21:00:00 5.5 14 Sudoeste 53 Sudoeste 1.3 930 2.2 96
2019-04-23 20:00:00 10.3 15 Sudoeste 35 Sudoeste 0 928.7 1.4 67
2019-04-23 19:00:00 10.3 13 Sudoeste 36 Sudoeste 0 928.1 1.1 69
2019-04-23 18:00:00 9.6 4 Oeste 45 Noroeste 0 927.8 1.2 73
2019-04-23 17:00:00 14.2 23 Oeste 46 Oeste 0 927.3 0.2 46
2019-04-23 16:00:00 13.2 26 Sudoeste 44 Oeste 0 927 -0.3 54
2019-04-23 15:00:00 12.3 22 Sudoeste 35 Sudoeste 0 926.6 -0.5 69
2019-04-23 14:00:00 10.4 19 Sudoeste 39 Sudoeste 0.1 927.1 0.9 88
2019-04-23 13:00:00 10 17 Sudoeste 36 Sudoeste 1.3 927.3 1.9 96
2019-04-23 12:00:00 9.9 24 Sudoeste 37 Oeste 0.6 927.1 1.7 97
2019-04-23 11:00:00 11.1 9 Sudoeste 18 Sudoeste 0.9 926.2 1.1 98
2019-04-23 10:00:00 11.8 4 Sudoeste 13 Sudoeste 0 925.4 0 90
2019-04-23 09:00:00 11.6 0 Calma 5 Sudoeste 0 925.4 -0.4 87
2019-04-23 08:00:00 11.5 0 Calma 18 Sudoeste 0 925.1 -1.6 83
2019-04-23 07:00:00 11.6 0 Calma 21 Sudoeste 0 925.4 -1.3 83
2019-04-23 06:00:00 11.6 14 Sudoeste 28 Sudoeste 0 925.8 -1.9 84
2019-04-23 05:00:00 11.6 16 Sudoeste 29 Sudoeste 0 926.7 -1.7 85
2019-04-23 04:00:00 11.6 11 Sudoeste 25 Sudoeste 0 926.7 -1.5 82
2019-04-23 03:00:00 12.2 14 Sudoeste 30 Sudoeste 0 927.7 -0.1 74
2019-04-23 02:00:00 13.2 9 Sudoeste 32 Sudoeste 0 928.4 0.6 65
2019-04-23 01:00:00 14 19 Sudoeste 36 Sudoeste 0 928.2 0.1 62
2019-04-23 00:00:00 13.3 9 Sudoeste 20 Sudoeste 0 927.8 -0.2 73
2019-04-22 23:00:00 13.8 0 Calma 11 Sur 0 927.8 -0.5 65
2019-04-22 22:00:00 13.5 2 Sur 15 Sur 0 928.1 -0.2 68
2019-04-22 21:00:00 14.6 10 Sur 19 Sur 0 928 -0.4 59
2019-04-22 20:00:00 15.1 12 Sur 23 Sudoeste 0 928.3 -0.6 58
2019-04-22 19:00:00 16.1 15 Sudoeste 27 Sudoeste 0 928.3 -1.1 55
2019-04-22 18:00:00 16.8 11 Sudoeste 25 Sudoeste 0 928.4 -1.3 57
2019-04-22 17:00:00 15.2 17 Sudoeste 27 Sudoeste 0 928.9 -0.8 60
2019-04-22 16:00:00 13.2 14 Sudoeste 20 Sur 0 929.4 -0.8 64
2019-04-22 15:00:00 13 11 Sudoeste 21 Sudoeste 0 929.7 -0.7 70
2019-04-22 14:00:00 11.2 13 Sudoeste 19 Sudoeste 0 929.7 -0.4 81
2019-04-22 13:00:00 11 11 Sudoeste 17 Sudoeste 0 930.2 0.4 82
2019-04-22 12:00:00 10 6 Sudoeste 11 Sudoeste 0 930.4 1 88
2019-04-22 11:00:00 9.5 5 Oeste 11 Oeste 0 930.1 0.8 93
2019-04-22 10:00:00 9.1 0 Calma -- -- 0 929.8 0.9 98
2019-04-22 09:00:00 8.6 0 Calma -- -- 0 929.4 0.4 99
2019-04-22 08:00:00 8.6 0 Calma -- -- 0 929.3 -0.2 98
2019-04-22 07:00:00 8.4 0 Calma 6 Este 0 928.9 -1.1 97
2019-04-22 06:00:00 8.1 4 Nordeste 9 Nordeste 0 929 -2 98
2019-04-22 05:00:00 8.1 3 Nordeste 12 Nordeste 0 929.5 -2.6 98
2019-04-22 04:00:00 8.1 2 Nordeste 11 Nordeste 0 930 -2.4 98
2019-04-22 03:00:00 8.4 0 Calma 5 Nordeste 0.2 931 -1.6 97
2019-04-22 02:00:00 9.1 0 Calma 18 Nordeste 0.1 932.1 -1.1 90
2019-04-22 01:00:00 9.5 5 Nordeste 21 Nordeste 0 932.4 -0.7 89
2019-04-22 00:00:00 9.6 0 Calma 13 Nordeste 0 932.6 -0.4 91
2019-04-21 23:00:00 9.9 4 Nordeste 16 Nordeste 0 933.2 0.4 89
2019-04-21 22:00:00 10.4 9 Nordeste 17 Nordeste 0 933.1 0.4 83
2019-04-21 21:00:00 10.3 10 Nordeste 26 Nordeste 0 933 -0.1 82
2019-04-21 20:00:00 11.5 9 Nordeste 21 Nordeste 0 932.8 -0.5 76
2019-04-21 19:00:00 12.1 14 Nordeste 22 Nordeste 0 932.7 -1.2 74
2019-04-21 18:00:00 11.7 12 Nordeste 18 Nordeste 0 933.1 -0.7 79
2019-04-21 17:00:00 11.6 7 Nordeste 15 Nordeste 0 933.3 -0.9 79
2019-04-21 16:00:00 12.1 9 Nordeste 19 Nordeste 0 933.9 -0.5 70
2019-04-21 15:00:00 12.7 12 Nordeste 25 Nordeste 0 933.8 -0.9 64
2019-04-21 14:00:00 11.9 13 Nordeste 25 Nordeste 0 934.2 -0.4 65
2019-04-21 13:00:00 11.9 12 Nordeste 32 Nordeste 0 934.4 -0.2 67
2019-04-21 12:00:00 11.8 14 Nordeste 27 Norte 0 934.7 -0.3 69
2019-04-21 11:00:00 11.6 15 Nordeste 26 Nordeste 0 934.6 0 70
2019-04-21 10:00:00 10.2 9 Nordeste 16 Nordeste 0 934.6 -0.3 79
2019-04-21 09:00:00 9.8 8 Nordeste 17 Nordeste 0 935 -0.2 81
2019-04-21 08:00:00 9.5 7 Nordeste 14 Nordeste 0 934.6 -1.3 85
2019-04-21 07:00:00 9.3 7 Nordeste 17 Nordeste 0 934.9 -1.7 87
2019-04-21 06:00:00 9.5 10 Nordeste 15 Nordeste 0 935.2 -2.2 87
2019-04-21 05:00:00 9.5 9 Nordeste 23 Nordeste 0 935.9 -2.5 86
2019-04-21 04:00:00 9.9 14 Nordeste 22 Nordeste 0 936.6 -2.2 76
2019-04-21 03:00:00 10.6 11 Nordeste 18 Nordeste 0 937.4 -2.3 70
2019-04-21 02:00:00 11 10 Nordeste 26 Nordeste 0 938.4 -1.3 67
2019-04-21 01:00:00 11.7 14 Nordeste 27 Nordeste 0 938.8 -0.8 64
2019-04-21 00:00:00 12 13 Nordeste 28 Nordeste 0 939.7 0.3 64
2019-04-20 23:00:00 12.1 15 Nordeste 36 Este 0 939.7 0.8 64
2019-04-20 22:00:00 12.2 14 Nordeste 39 Nordeste 0 939.6 1.2 64
2019-04-20 21:00:00 12.4 15 Nordeste 31 Nordeste 0 939.4 0.9 61
2019-04-20 20:00:00 12.6 18 Nordeste 40 Nordeste 0 938.9 0.9 61
2019-04-20 19:00:00 12.8 21 Nordeste 37 Nordeste 0 938.4 0.3 63
2019-04-20 18:00:00 13.2 19 Nordeste 43 Nordeste 0 938.5 0.5 66
2019-04-20 17:00:00 13.9 21 Nordeste 39 Nordeste 0 938 0 63
2019-04-20 16:00:00 13.9 21 Nordeste 40 Nordeste 0 938.1 0.5 62
2019-04-20 15:00:00 13.9 22 Nordeste 44 Nordeste 0 938 0.7 62
2019-04-20 14:00:00 14.1 21 Nordeste 36 Nordeste 0 938 0.8 64
2019-04-20 13:00:00 13.2 17 Nordeste 37 Nordeste 0 937.6 1 72
2019-04-20 12:00:00 13.3 21 Nordeste 35 Nordeste 0 937.3 0.5 73
2019-04-20 11:00:00 12.2 14 Nordeste 23 Nordeste 0 937.2 -0.1 84
2019-04-20 10:00:00 10.1 0 Calma 8 Nordeste 0.3 936.6 -0.7 99
2019-04-20 09:00:00 9.2 3 Nordeste 9 Nordeste 1 936.8 -0.7 99
2019-04-20 08:00:00 9.2 0 Calma 7 Este 4.6 937.3 -0.7 99
2019-04-20 07:00:00 9.3 0 Calma 6 Este 6.8 937.3 -1.6 99
2019-04-20 06:00:00 9.1 0 Calma 13 Nordeste 3.7 937.5 -2.1 99
2019-04-20 05:00:00 9.2 5 Nordeste 24 Nordeste 3.3 938 -2.1 98
2019-04-20 04:00:00 9.2 15 Nordeste 24 Nordeste 3 938.9 -1.8 97
2019-04-20 03:00:00 9.2 10 Nordeste 21 Nordeste 0.2 939.6 -1.4 93
2019-04-20 02:00:00 9.2 14 Nordeste 26 Nordeste 0.5 940.1 -1.1 97
2019-04-20 01:00:00 9.5 0 Calma 26 Nordeste 0.4 940.7 0 92
2019-04-20 00:00:00 9.8 2 Nordeste 13 Nordeste 0 941 0.4 85
2019-04-19 23:00:00 9.1 5 Nordeste 13 Nordeste 0 941.2 1.4 88
2019-04-19 22:00:00 9.2 5 Nordeste 13 Nordeste 0 940.7 1.2 88
2019-04-19 21:00:00 10.1 6 Nordeste 19 Nordeste 0 940.6 0.7 84
2019-04-19 20:00:00 11.8 2 Nordeste 19 Nordeste 0 939.8 0.2 77
2019-04-19 19:00:00 12.1 11 Nordeste 22 Nordeste 0.2 939.5 -0.1 88
2019-04-19 18:00:00 12.1 6 Nordeste 22 Nordeste 0.7 939.9 0.5 82
2019-04-19 17:00:00 13.8 12 Nordeste 20 Nordeste 0 939.6 0.1 61
2019-04-19 16:00:00 14.3 7 Nordeste 17 Norte 0 939.6 -0.6 58
2019-04-19 15:00:00 13.8 11 Nordeste 18 Nordeste 0 939.4 -0.8 59
2019-04-19 14:00:00 13.1 11 Nordeste 22 Nordeste 0 939.5 -0.4 66
2019-04-19 13:00:00 12.5 10 Nordeste 19 Nordeste 0 940.2 0.7 76
2019-04-19 12:00:00 11.2 9 Nordeste 14 Nordeste 0 940.2 0.9 85
2019-04-19 11:00:00 10.7 7 Nordeste 11 Nordeste 0 939.9 1 94
2019-04-19 10:00:00 10 0 Calma 5 Nordeste 0 939.5 1 98
2019-04-19 09:00:00 9.3 0 Calma -- -- 0 939.3 1 99
2019-04-19 08:00:00 9.4 0 Calma -- -- 0 938.9 0 99
2019-04-19 07:00:00 9.3 3 Sur 6 Sur 0 938.5 -0.3 99
2019-04-19 06:00:00 9.5 3 Sudoeste 8 Sudoeste 0 938.3 -0.7 99
2019-04-19 05:00:00 9.8 0 Calma 5 Sur 0 938.9 -0.3 97
2019-04-19 04:00:00 9.7 4 Sudoeste 12 Sudoeste 0.5 938.8 -0.5 97
2019-04-19 03:00:00 9.8 5 Sudoeste 13 Sudoeste 0.4 939 0.3 97
2019-04-19 02:00:00 9.9 7 Sur 13 Sudoeste 0.1 939.2 0.2 98
2019-04-19 01:00:00 10.4 0 Calma 5 Norte 0 939.3 1 98
2019-04-19 00:00:00 10.5 0 Calma 12 Sudeste 0 938.7 0.9 96
2019-04-18 23:00:00 10.2 8 Oeste 13 Oeste 0 939 1.6 97
2019-04-18 22:00:00 10.2 3 Sudoeste 11 Sudoeste 0 938.3 1.1 96
2019-04-18 21:00:00 10.3 0 Calma 12 Oeste 0.1 937.8 1.2 96
2019-04-18 20:00:00 11 6 Oeste 31 Sudoeste 0.3 937.4 0.8 92
2019-04-18 19:00:00 11.5 19 Sudoeste 47 Sudoeste 0 937.2 0.4 79
2019-04-18 18:00:00 14.7 10 Sudoeste 21 Sudoeste 0 936.6 -1 59
2019-04-18 17:00:00 14.1 8 Oeste 16 Oeste 0 936.6 -0.7 64
2019-04-18 16:00:00 13.7 6 Oeste 13 Oeste 0 936.8 -1.3 71
2019-04-18 15:00:00 10.9 5 Sudoeste 11 Norte 0 937.6 -1.8 85
2019-04-18 14:00:00 10.4 3 Norte 19 Nordeste 0 937.3 -2.3 91
2019-04-18 13:00:00 10 3 Este 20 Sudeste 1 938.1 -1.6 86
2019-04-18 12:00:00 9.8 6 Sur 15 Sudeste 2.7 939.4 0.1 92
2019-04-18 11:00:00 9.8 6 Sur 13 Sur 3.9 939.6 1.5 93
2019-04-18 10:00:00 9.9 8 Sur 16 Sur 2.8 939.7 3.6 94
2019-04-18 09:00:00 9.8 11 Sur 24 Sudoeste 8.1 939.3 2.5 99
2019-04-18 08:00:00 11 5 Sudoeste 26 Sudoeste 6.9 938.1 -0.3 99
2019-04-18 07:00:00 12 3 Nordeste 12 Este 1.9 936.1 -3.3 99
2019-04-18 06:00:00 12.1 0 Calma 12 Nordeste 3.8 936.8 -3.1 99
2019-04-18 05:00:00 12.4 0 Calma 0 Calma 2.3 938.4 -2.4 98
2019-04-18 04:00:00 12.7 0 Calma 10 Oeste 0.5 939.4 -1.9 94
2019-04-18 03:00:00 13.6 0 Calma 19 Sudoeste 0 939.9 -1.2 85
2019-04-18 02:00:00 14.1 10 Sudoeste 19 Sudoeste 0 940.8 0.4 83
2019-04-18 01:00:00 15.4 7 Sudoeste 15 Sudoeste 0 941.3 1.5 70
2019-04-18 00:00:00 16.1 5 Sudoeste 17 Sudoeste 0 941.1 2.4 68
2019-04-17 23:00:00 16.9 0 Calma 19 Sur 0 940.4 2 65
2019-04-17 22:00:00 17.4 9 Sudoeste 35 Sudoeste 0 939.8 2.7 61
2019-04-17 21:00:00 18 9 Sur 32 Sudoeste 0 938.7 3 57
2019-04-17 20:00:00 19.1 19 Sudoeste 36 Sudoeste 0 938.4 2.7 53
2019-04-17 19:00:00 22 29 Sudoeste 48 Sudoeste 0 937.1 0.7 42
2019-04-17 18:00:00 27.7 0 Calma 12 Oeste 0 935.7 -1.5 35
2019-04-17 17:00:00 27.4 4 Oeste 13 Oeste 0 935.7 -2.1 35
2019-04-17 16:00:00 26.5 2 Oeste 10 Sudoeste 0 936.4 -2.3 40
2019-04-17 15:00:00 24.6 5 Oeste 14 Sudoeste 0 937.2 -1.8 45
2019-04-17 14:00:00 23.4 2 Sudoeste 11 Noroeste 0 937.8 -0.6 48
2019-04-17 13:00:00 20.9 5 Oeste 14 Oeste 0 938.7 0.7 53
2019-04-17 12:00:00 18.1 7 Oeste 13 Oeste 0 939 1 61
2019-04-17 11:00:00 15.5 0 Calma 11 Oeste 0 938.4 -0.2 69
2019-04-17 10:00:00 13 0 Calma 0 Calma 0 938 -0.7 83
2019-04-17 09:00:00 11.4 0 Calma -- -- 0 938 -0.8 92
2019-04-17 08:00:00 10.3 0 Calma 3 Sur 0 938.6 -1 88
2019-04-17 07:00:00 10.4 2 Sudoeste 8 Sudoeste 0 938.7 -1.3 87
2019-04-17 06:00:00 11.2 0 Calma -- -- 0 938.8 -1.9 84
2019-04-17 05:00:00 11.7 0 Calma -- -- 0 939.6 -1.6 79
2019-04-17 04:00:00 12.8 0 Calma -- -- 0 940 -0.9 74
2019-04-17 03:00:00 13.3 0 Calma 9 Sur 0 940.7 -0.8 70
2019-04-17 02:00:00 14.8 7 Sur 12 Sur 0 941.2 -0.1 65
2019-04-17 01:00:00 15.5 0 Calma -- -- 0 940.9 -0.4 61
2019-04-17 00:00:00 17.3 0 Calma 8 Sudeste 0 941.5 0.8 52
2019-04-16 23:00:00 17.5 0 Calma 9 Sudoeste 0 941.3 0.6 50
2019-04-16 22:00:00 20.1 5 Sur 12 Sudoeste 0 941.3 0.2 41
2019-04-16 21:00:00 21.2 4 Nordeste 7 Este 0 940.7 -0.7 37
2019-04-16 20:00:00 25.2 0 Calma 10 Noroeste 0 940.7 -1.2 30
2019-04-16 19:00:00 26.1 6 Noroeste 12 Oeste 0 941.1 -1.7 30
2019-04-16 18:00:00 25.9 5 Noroeste 15 Noroeste 0 941.4 -2.1 31
2019-04-16 17:00:00 25 4 Norte 14 Noroeste 0 941.9 -2 33
2019-04-16 16:00:00 23.7 6 Oeste 14 Oeste 0 942.8 -1.5 34
2019-04-16 15:00:00 23 5 Noroeste 16 Noroeste 0 943.5 -1 35
2019-04-16 14:00:00 21 4 Noroeste 17 Noroeste 0 943.9 -0.9 37
2019-04-16 13:00:00 19.6 8 Norte 20 Nordeste 0 944.3 -0.1 40
2019-04-16 12:00:00 17.9 11 Nordeste 22 Norte 0 944.5 0.9 47
2019-04-16 11:00:00 16.5 13 Nordeste 22 Nordeste 0 944.8 1.6 54
2019-04-16 10:00:00 14 4 Nordeste 11 Nordeste 0 944.4 1 71
2019-04-16 09:00:00 11.7 0 Calma -- -- 0 943.6 -0.1 92
2019-04-16 08:00:00 9.7 0 Calma 8 Nordeste 0 943.2 -1.1 97
2019-04-16 07:00:00 10.4 0 Calma 6 Nordeste 0 943.4 -0.8 94
2019-04-16 06:00:00 11.6 0 Calma -- -- 0 943.7 -0.6 89
2019-04-16 05:00:00 13.6 0 Calma -- -- 0 944.3 -0.3 71
2019-04-16 04:00:00 14.5 0 Calma 11 Norte 0 944.2 -0.1 65
2019-04-16 03:00:00 15.3 3 Noroeste 16 Noroeste 0 944.3 0.2 64
2019-04-16 02:00:00 16 0 Calma 16 Oeste 0 944.6 1.6 67
2019-04-16 01:00:00 16.4 9 Oeste 23 Oeste 0 944.3 1.9 67
2019-04-16 00:00:00 17.3 13 Oeste 31 Sudoeste 0 944.1 3 61
2019-04-15 23:00:00 18.4 15 Sudoeste 24 Oeste 0 943 2 46
2019-04-15 22:00:00 19.3 12 Oeste 29 Oeste 0 942.4 2.4 38
2019-04-15 21:00:00 20.6 13 Oeste 40 Oeste 0 941.1 1.2 32
2019-04-15 20:00:00 22.9 22 Oeste 39 Oeste 0 941 0.7 34
2019-04-15 19:00:00 24.3 16 Oeste 34 Oeste 0 940 -0.6 35
2019-04-15 18:00:00 25.2 14 Sudoeste 32 Oeste 0 939.9 -1.1 37
2019-04-15 17:00:00 25.3 10 Oeste 31 Oeste 0 940.3 -1.3 37
2019-04-15 16:00:00 24.8 10 Oeste 24 Oeste 0 940.6 -1.3 35
2019-04-15 15:00:00 23.5 5 Oeste 27 Sudoeste 0 941 -0.5 37
2019-04-15 14:00:00 22.2 16 Sudoeste 35 Sudoeste 0 941.6 1.2 41
2019-04-15 13:00:00 21 6 Oeste 16 Oeste 0 941.9 1.9 55
2019-04-15 12:00:00 20.2 0 Calma 7 Oeste 0 941.5 1.4 57
2019-04-15 11:00:00 18.6 0 Calma 5 Sudoeste 0 940.4 0.4 63
2019-04-15 10:00:00 16.4 0 Calma 8 Nordeste 0 940 0.2 70
2019-04-15 09:00:00 13.1 0 Calma -- -- 0 940.1 -0.2 88
2019-04-15 08:00:00 11.1 0 Calma 8 Nordeste 0 940 -0.8 94
2019-04-15 07:00:00 10.9 0 Calma 8 Nordeste 0 939.8 -1.6 92
2019-04-15 06:00:00 11.6 0 Calma 0 Calma 0 940.3 -1.7 89
2019-04-15 05:00:00 12.4 0 Calma 0 Calma 0 940.8 -1.8 85
2019-04-15 04:00:00 13 0 Calma -- -- 0 941.4 -1.8 82
2019-04-15 03:00:00 13.6 0 Calma -- -- 0 942 -1.4 78
2019-04-15 02:00:00 14.2 0 Calma -- -- 0 942.6 -1 74
2019-04-15 01:00:00 15.6 0 Calma 0 Calma 0 943.2 -0.4 67
2019-04-15 00:00:00 16.4 0 Calma -- -- 0 943.4 0.3 62
2019-04-14 23:00:00 17.6 0 Calma 13 Sur 0 943.6 0.4 54
2019-04-14 22:00:00 19.5 4 Sur 14 Sur 0 943.6 0.5 49
2019-04-14 21:00:00 19.7 7 Sur 14 Sudoeste 0 943.1 -0.1 47
2019-04-14 20:00:00 22.7 2 Oeste 18 Oeste 0 943.2 -0.4 41
2019-04-14 19:00:00 23.6 3 Sudoeste 18 Oeste 0 943.1 -1.2 40
2019-04-14 18:00:00 23.7 5 Oeste 28 Oeste 0 943.2 -1.3 40
2019-04-14 17:00:00 23.4 5 Oeste 24 Oeste 0 943.6 -1.3 39
2019-04-14 16:00:00 23 8 Oeste 23 Sudoeste 0 944.3 -0.8 39
2019-04-14 15:00:00 21.8 8 Sudoeste 24 Sudoeste 0 944.5 -1.1 39
2019-04-14 14:00:00 20.9 10 Sudoeste 21 Sudoeste 0 944.9 -0.5 39
2019-04-14 13:00:00 19.7 0 Calma 12 Sudoeste 0 945.1 0.7 46
2019-04-14 12:00:00 17.5 0 Calma 14 Oeste 0 945.6 1.8 54
2019-04-14 11:00:00 15.4 0 Calma 2 Norte 0 945.4 1.6 60
2019-04-14 10:00:00 13 0 Calma 6 Norte 0 944.4 0.6 70
2019-04-14 09:00:00 10.3 0 Calma -- -- 0 943.8 -0.4 90
2019-04-14 08:00:00 8.6 0 Calma -- -- 0 943.8 -0.7 87
2019-04-14 07:00:00 9.2 0 Calma -- -- 0 943.8 -0.7 81
2019-04-14 06:00:00 10 0 Calma -- -- 0 944.2 -0.5 78
2019-04-14 05:00:00 10 0 Calma 9 Sur 0 944.5 -0.8 72
2019-04-14 04:00:00 10.6 0 Calma -- -- 0 944.5 -1.4 69
2019-04-14 03:00:00 12.1 0 Calma 0 Calma 0 944.7 -1.3 62
2019-04-14 02:00:00 12.4 0 Calma 8 Sur 0 945.3 -0.7 58
2019-04-14 01:00:00 15.3 2 Sur 10 Sur 0 945.9 0.5 46
2019-04-14 00:00:00 15.9 0 Calma 10 Sudeste 0 946 1.2 43
2019-04-13 23:00:00 16.6 0 Calma 13 Sur 0 946 1.5 41
2019-04-13 22:00:00 17 3 Sur 11 Sur 0 945.4 1.3 42
2019-04-13 21:00:00 17.5 0 Calma 17 Oeste 0 944.8 0.6 41
2019-04-13 20:00:00 20.2 6 Oeste 23 Sudoeste 0 944.5 0 37
2019-04-13 19:00:00 21 9 Sudoeste 23 Sudoeste 0 944.1 -0.8 35
2019-04-13 18:00:00 21.2 12 Sudoeste 25 Sudoeste 0 944.2 -1 35
2019-04-13 17:00:00 20.4 10 Sudoeste 24 Sudoeste 0 944.5 -0.9 35
2019-04-13 16:00:00 20.1 4 Sudoeste 20 Sudoeste 0 944.9 -0.9 36
2019-04-13 15:00:00 19.4 7 Sudoeste 23 Sudoeste 0 945.2 -0.3 37
2019-04-13 14:00:00 18.5 0 Calma 15 Oeste 0 945.4 -0.2 37
2019-04-13 13:00:00 17.2 0 Calma 12 Sudoeste 0 945.8 1.2 42
2019-04-13 12:00:00 15.3 0 Calma 13 Sudoeste 0 945.5 2.3 53
2019-04-13 11:00:00 13 0 Calma 8 Noroeste 0 945.6 2.7 59
2019-04-13 10:00:00 10 0 Calma 2 Nordeste 0 944.6 2.4 75
2019-04-13 09:00:00 6.8 0 Calma -- -- 0 943.2 1.3 95
2019-04-13 08:00:00 4.7 0 Calma -- -- 0 942.9 0.6 94
2019-04-13 07:00:00 5.2 2 Nordeste 7 Nordeste 0 942.2 0 94
2019-04-13 06:00:00 5.7 0 Calma -- -- 0 941.9 -1 90
2019-04-13 05:00:00 6.2 0 Calma -- -- 0 942.3 -0.8 87
2019-04-13 04:00:00 6.6 0 Calma -- -- 0 942.2 -1 85
2019-04-13 03:00:00 7.8 0 Calma -- -- 0 942.9 -0.4 79
2019-04-13 02:00:00 8 0 Calma 4 Norte 0 943.1 -0.4 79
2019-04-13 01:00:00 8.6 0 Calma 13 Norte 0 943.2 0.2 73
2019-04-13 00:00:00 10.3 0 Calma 9 Sur 0 943.3 0.2 61
2019-04-12 23:00:00 10.5 2 Sudoeste 9 Sudoeste 0 943.5 0.4 58
2019-04-12 22:00:00 13.4 0 Calma 2 Este 0 943 -0.3 46
2019-04-12 21:00:00 14.4 0 Calma 12 Norte 0 943.1 -0.1 41
2019-04-12 20:00:00 17.4 3 Norte 15 Norte 0 943.1 -0.3 34
2019-04-12 19:00:00 17.9 7 Norte 18 Noroeste 0 943.3 -0.6 32
2019-04-12 18:00:00 18.6 3 Noroeste 18 Noroeste 0 943.2 -0.8 33
2019-04-12 17:00:00 17.7 12 Norte 41 Norte 0 943.4 -0.8 33
2019-04-12 16:00:00 17.5 8 Noroeste 20 Noroeste 0 943.9 -0.2 34
2019-04-12 15:00:00 16.9 6 Oeste 22 Noroeste 0 944 -0.1 36
2019-04-12 14:00:00 16 10 Noroeste 23 Oeste 0 944.2 0.5 37
2019-04-12 13:00:00 14.7 4 Sudoeste -- -- -- 944.1 1.2 41
2019-04-12 12:00:00 13.1 4 Nordeste -- -- -- 944.1 2 47
2019-04-12 11:00:00 11.3 2 Norte -- -- -- 943.7 2.2 58
2019-04-12 10:00:00 8.4 2 Nordeste 10 Nordeste 0 942.9 1.7 74
2019-04-12 09:00:00 5.5 0 Calma 14 Este 0 942.1 0.8 90
2019-04-12 08:00:00 4.1 0 Calma 10 Nordeste 0 941.5 0 95
2019-04-12 07:00:00 3.8 0 Calma 9 Nordeste 0 941.2 -0.6 93
2019-04-12 06:00:00 4.1 0 Calma 8 Nordeste 0 941.3 -1.1 92
2019-04-12 05:00:00 4.8 0 Calma -- -- 0 941.5 -1.2 88
2019-04-12 04:00:00 5.9 0 Calma 0 Calma 0 941.8 -0.9 82
2019-04-12 03:00:00 6.1 0 Calma -- -- 0 942.4 -0.6 79
2019-04-12 02:00:00 6.9 0 Calma 5 Sur 0 942.7 -0.5 73
2019-04-12 01:00:00 7.2 0 Calma 9 Sudeste 0 942.7 -0.1 71
2019-04-12 00:00:00 9.1 0 Calma 7 Sudeste 0 943 0.4 59
2019-04-11 23:00:00 10.9 0 Calma 14 Sudeste 0 943.2 0.6 49
2019-04-11 22:00:00 11.8 4 Sudeste 11 Sudeste 0 942.8 0.1 46
2019-04-11 21:00:00 12.9 0 Calma 0 Calma 0 942.6 -0.1 42
2019-04-11 20:00:00 14.2 0 Calma 17 Noroeste 0 942.6 -0.3 39
2019-04-11 19:00:00 16 6 Noroeste 24 Noroeste 0 942.7 -0.4 34
2019-04-11 18:00:00 16.6 9 Noroeste 24 Norte 0 942.7 -0.6 36
2019-04-11 17:00:00 16.3 5 Norte 37 Norte 0 942.9 -0.4 37
2019-04-11 16:00:00 14.8 4 Norte 17 Nordeste 0 943.1 -0.3 40
2019-04-11 15:00:00 15.5 4 Norte 17 Noroeste 0 943.3 0.1 41
2019-04-11 14:00:00 14 3 Oeste 15 Noroeste 0 943.3 0.9 51
2019-04-11 13:00:00 12.6 0 Calma 13 Sur 0 943.4 1.5 56
2019-04-11 12:00:00 10.2 5 Noroeste 9 Noroeste 0 943.2 1.8 78
2019-04-11 11:00:00 7.7 0 Calma 3 Norte 0 942.4 1.5 99
2019-04-11 10:00:00 5.4 0 Calma 10 Nordeste 0 941.9 1.6 99
2019-04-11 09:00:00 3.8 0 Calma 8 Nordeste 0 941.4 1 99
2019-04-11 08:00:00 3.8 0 Calma -- -- 0 940.9 0.5 99
2019-04-11 07:00:00 3.9 0 Calma 8 Nordeste 0 940.3 -0.1 99
2019-04-11 06:00:00 4.2 0 Calma -- -- 0 940.4 -0.1 99
2019-04-11 05:00:00 4.9 0 Calma -- -- 0 940.4 -0.3 99
2019-04-11 04:00:00 5 0 Calma 6 Sudeste 0 940.4 -0.1 99
2019-04-11 03:00:00 4.8 0 Calma 5 Nordeste 0 940.5 -0.6 99
2019-04-11 02:00:00 5.7 0 Calma 6 Norte 0 940.7 -0.5 99
2019-04-11 01:00:00 5.6 2 Nordeste 7 Norte 0 940.5 -0.3 99
2019-04-11 00:00:00 6 0 Calma 12 Sudeste 0 941.1 1.4 97
2019-04-10 23:00:00 6.8 7 Sudeste 12 Sudeste 0 941.2 1.3 96
2019-04-10 22:00:00 7.7 5 Norte 15 Sudeste 0 940.8 2.1 92
2019-04-10 21:00:00 7.8 13 Sudeste 30 Norte 1.4 939.7 0.9 91
2019-04-10 20:00:00 8.2 9 Nordeste -- -- -- 939.9 0.6 90
2019-04-10 19:00:00 7.4 10 Sudeste 34 Sudoeste 4.8 938.7 -0.8 83
2019-04-10 18:00:00 12.6 22 Sudoeste 38 Sudoeste 0 938.8 -1.2 57
2019-04-10 17:00:00 13.2 22 Sudoeste 36 Sudoeste 0 939.3 -1 57
2019-04-10 16:00:00 12.4 18 Sudoeste 31 Sudoeste 0 939.5 -0.9 60
2019-04-10 15:00:00 10.9 19 Sudoeste 31 Sudoeste 0 940 -0.6 65
2019-04-10 14:00:00 10.4 10 Sudoeste 21 Sudoeste 0 940.3 -0.2 69
2019-04-10 13:00:00 9.2 14 Sudoeste 21 Sudoeste 0 940.4 0.1 76
2019-04-10 12:00:00 8.7 13 Sudoeste 18 Sudoeste 0 940.6 0.5 84
2019-04-10 11:00:00 8.3 12 Sudoeste 21 Sudoeste 0 940.5 0.9 90
2019-04-10 10:00:00 8.2 11 Sudoeste 19 Sudoeste 0 940.3 0.9 92
2019-04-10 09:00:00 7.6 10 Sudoeste 17 Sudoeste 0 940.1 0.5 97
2019-04-10 08:00:00 7.7 9 Sudoeste 24 Sudoeste 0 939.6 -0.2 97
2019-04-10 07:00:00 7.9 15 Sudoeste 25 Sudoeste 0 939.4 -0.5 94
2019-04-10 06:00:00 8.5 13 Sudoeste 24 Sudoeste 0 939.6 -0.6 95
2019-04-10 05:00:00 8.7 13 Sudoeste 24 Sudoeste 0 939.8 -0.7 94
2019-04-10 04:00:00 8.5 9 Sudoeste 21 Sudoeste 0 939.9 -0.9 95
2019-04-10 03:00:00 8.8 13 Sudoeste 26 Sudoeste 0 940.2 -0.5 91
2019-04-10 02:00:00 9.7 9 Sudoeste 18 Sudoeste 0 940.5 -0.3 88
2019-04-10 01:00:00 9.8 7 Sudoeste 19 Sudoeste 0 940.8 0.5 89
2019-04-10 00:00:00 9.9 7 Sudoeste 19 Sudoeste 0 940.7 1.2 84
2019-04-09 23:00:00 10 7 Sudoeste 24 Sudoeste 0 940.8 1.3 84
2019-04-09 22:00:00 9.7 14 Sur 26 Sudoeste 0.1 940.3 1.2 87
2019-04-09 21:00:00 10.6 10 Sur 20 Sur 0 939.5 0.3 82
2019-04-09 20:00:00 11.3 5 Sur 40 Sudoeste 0 939.5 -0.3 83
2019-04-09 19:00:00 11.8 26 Sudoeste 46 Sudoeste 0 939.1 -1.5 69
2019-04-09 18:00:00 11.7 21 Sudoeste 38 Sudoeste 0 939.2 -0.7 69
2019-04-09 17:00:00 11.1 15 Sudoeste 30 Sudoeste 0 939.8 -1.2 79
2019-04-09 16:00:00 8.9 15 Sudoeste 44 Oeste 1.2 940.6 -0.4 90
2019-04-09 15:00:00 10.7 9 Sudoeste 25 Sudoeste 0.1 939.9 -1.4 80
2019-04-09 14:00:00 10.3 21 Sudoeste 37 Sudoeste 0 941 -0.5 69
2019-04-09 13:00:00 11.5 18 Sudoeste 33 Sudoeste 0 941 -0.4 68
2019-04-09 12:00:00 9.7 14 Sudoeste 29 Sudoeste 0.1 941.3 0.4 87
2019-04-09 11:00:00 9.1 18 Sudoeste 26 Sudoeste 0 941.5 1 88
2019-04-09 10:00:00 8.4 16 Sudoeste 26 Sudoeste 0 941.4 1.1 92
2019-04-09 09:00:00 8.2 15 Sudoeste 25 Sudoeste 0 940.9 0.5 99
2019-04-09 08:00:00 7.9 12 Sudoeste 18 Sudoeste 0 940.5 -0.2 99
2019-04-09 07:00:00 8.3 10 Sudoeste 17 Sudoeste 0 940.3 -0.5 99
2019-04-09 06:00:00 8.4 8 Sudoeste 19 Sudoeste 0 940.4 -0.1 99
2019-04-09 05:00:00 8.8 13 Sudoeste 21 Sudoeste 0 940.7 0.4 99
2019-04-09 04:00:00 9.4 8 Sudoeste 15 Sudoeste 0 940.8 0.2 99
2019-04-09 03:00:00 9.8 9 Sudoeste 16 Sudoeste 0 940.5 0.7 99
2019-04-09 02:00:00 9.8 7 Sudoeste 22 Sudoeste 0 940.3 0.7 99
2019-04-09 01:00:00 9.8 15 Sudoeste 28 Sudoeste 0.1 940.6 1 99
2019-04-09 00:00:00 9.6 6 Sudeste -- -- -- 939.8 0.5 99
2019-04-08 23:00:00 11.2 23 Sudoeste 35 Sudoeste 0 939.6 0.2 99
2019-04-08 22:00:00 11.2 11 Sudoeste 26 Sudoeste 0.3 939.6 0.2 97
2019-04-08 21:00:00 11.1 18 Sudoeste 32 Sudoeste 2.9 939.3 -0.1 97
2019-04-08 20:00:00 12.4 12 Sudoeste 29 Sudoeste 0.2 939.4 -0.4 95
2019-04-08 19:00:00 13.3 12 Sudoeste 26 Sudoeste 0 939.4 -0.9 89
2019-04-08 18:00:00 13.2 14 Sudoeste 32 Sudoeste 0 939.4 -1.1 85
2019-04-08 17:00:00 13.1 19 Sudoeste 31 Sudoeste 0.5 939.8 -0.9 91
2019-04-08 16:00:00 12.1 17 Sudoeste 37 Sudoeste 0.1 940.3 -0.7 94
2019-04-08 15:00:00 12 17 Sudoeste 35 Sudoeste 1 940.5 -0.5 97
2019-04-08 14:00:00 13.6 16 Sudoeste 31 Sudoeste 0 940.7 0.2 78
2019-04-08 13:00:00 12.6 21 Sudoeste 36 Sudoeste 0 941 0.7 81
2019-04-08 12:00:00 11.7 16 Sudoeste 37 Sudoeste 0 941 0.6 90
2019-04-08 11:00:00 11.2 18 Sudoeste 34 Sudoeste 0 940.5 1.1 96
2019-04-08 10:00:00 10.7 19 Sudoeste 33 Sudoeste 0.1 940.3 0.8 99
2019-04-08 09:00:00 10.8 13 Sudoeste 28 Sudoeste 0 940.4 0.7 99
2019-04-08 08:00:00 10.5 16 Sudoeste 31 Sudoeste 0 939.4 -0.3 99
2019-04-08 07:00:00 10.6 14 Sudoeste 23 Sur 2 939.5 -0.5 99
2019-04-08 06:00:00 10.5 10 Sudoeste 19 Sudoeste 0.1 939.7 -0.7 99
2019-04-08 05:00:00 10.1 10 Sur 15 Sur 0 939.7 -0.9 99
2019-04-08 04:00:00 10.1 4 Sudoeste 10 Sur 0 940 -0.5 99
2019-04-08 03:00:00 9.9 8 Sudoeste 15 Sudoeste 0 940.4 -0.3 99
2019-04-08 02:00:00 9.8 7 Sur 9 Sudoeste 0.3 940.6 0.2 99
2019-04-08 01:00:00 9.8 3 Sudoeste 13 Sudoeste 0.1 940.5 0 99
2019-04-08 00:00:00 9.8 6 Sudoeste 12 Sudoeste 0 940.7 0.3 97
2019-04-07 23:00:00 9.8 6 Sudoeste 12 Sudoeste 0 940.4 0.1 96
2019-04-07 22:00:00 10 9 Sudoeste 24 Sudoeste 0 940.5 0.6 91
2019-04-07 21:00:00 10.5 15 Sudoeste 29 Sudoeste 0 940.4 0.8 82
2019-04-07 20:00:00 11.3 11 Sudoeste 22 Oeste 0 940.3 0.6 73
2019-04-07 19:00:00 11.4 13 Oeste 30 Oeste 0 939.9 0.3 70
2019-04-07 18:00:00 12.5 14 Oeste 27 Oeste 0 939.6 0.3 63
2019-04-07 17:00:00 12.3 15 Oeste 33 Sudoeste 0 939.7 0.2 63
2019-04-07 16:00:00 12 19 Oeste 33 Oeste 0 939.6 0.5 63
2019-04-07 15:00:00 12.2 18 Oeste 35 Oeste 0 939.3 0.7 67
2019-04-07 14:00:00 10.7 19 Sudoeste 32 Sudoeste 0 939.5 1.9 69
2019-04-07 13:00:00 9.9 19 Sudoeste 30 Sudoeste 0 939.1 2.2 73
2019-04-07 12:00:00 8.4 14 Sudoeste 28 Sudoeste 0 938.6 2.5 84
2019-04-07 11:00:00 7.7 17 Sudoeste 30 Sudoeste 0 937.6 2.5 90
2019-04-07 10:00:00 7.3 16 Sudoeste 27 Sudoeste 0 936.9 2.7 91
2019-04-07 09:00:00 7.3 12 Sudoeste 31 Sudoeste 0 936.1 2.5 91
2019-04-07 08:00:00 7.2 14 Oeste 40 Oeste 0 935.1 2.1 91
2019-04-07 07:00:00 7.2 22 Oeste 37 Oeste 0 934.2 0.9 91
2019-04-07 06:00:00 6.9 15 Sudoeste 33 Sudoeste 0 933.6 0.3 98
2019-04-07 05:00:00 6.7 19 Sudoeste 31 Sudoeste 0.1 933 -0.4 99
2019-04-07 04:00:00 6.8 15 Sudoeste 31 Sudoeste 0 933.3 -0.5 97
2019-04-07 03:00:00 6.6 16 Sudoeste 30 Sudoeste 0 933.3 -0.3 95
2019-04-07 02:00:00 6.8 15 Sudoeste 32 Sudoeste 0 933.4 0.1 93
2019-04-07 01:00:00 6.5 15 Sudoeste 34 Sudoeste 0 933.8 0.8 91
2019-04-07 00:00:00 6.5 16 Sudoeste 27 Sudoeste 0 933.6 1.4 89
2019-04-06 23:00:00 7 17 Sudoeste 27 Sudoeste 0 933.3 1.8 87
2019-04-06 22:00:00 6.5 16 Sudoeste 28 Sudoeste 0 933 2.1 91
2019-04-06 21:00:00 6 5 Sudoeste 16 Sudoeste 0 932.2 1.2 98
2019-04-06 20:00:00 5.8 9 Sur 26 Sur 0.4 931.5 0.2 95
2019-04-06 19:00:00 5.2 17 Sur 35 Noroeste 2.8 930.9 -0.5 97
2019-04-06 18:00:00 7.2 14 Sur 30 Oeste 0.2 931 -0.8 90
2019-04-06 17:00:00 8.1 16 Sudoeste 27 Sudoeste 0 931.3 -0.4 89
2019-04-06 16:00:00 6.6 11 Sudoeste 40 Sudoeste 1.9 931.4 -0.4 96
2019-04-06 15:00:00 9 25 Sudoeste 42 Sudoeste 0 931.8 -0.1 70
2019-04-06 14:00:00 9.4 24 Sudoeste 41 Sudoeste 0 931.7 0 73
2019-04-06 13:00:00 7.4 19 Sudoeste 37 Sudoeste 0.1 931.8 0.2 89
2019-04-06 12:00:00 7.1 22 Sudoeste 38 Sudoeste 0.2 931.9 0.6 91
2019-04-06 11:00:00 7.9 23 Sudoeste 41 Sudoeste 0 931.7 1 85
2019-04-06 10:00:00 6.8 21 Sudoeste 34 Sudoeste 0 931.6 1.4 97
2019-04-06 09:00:00 6 22 Sudoeste 34 Sudoeste 0 931.3 1.7 97
2019-04-06 08:00:00 5.6 21 Sudoeste 32 Sudoeste 0.1 930.7 1.4 99
2019-04-06 07:00:00 5.4 15 Sudoeste 33 Sudoeste 1.3 930.2 1 99
2019-04-06 06:00:00 5.3 13 Sudoeste 37 Sudoeste 0.9 929.6 -0.1 99
2019-04-06 05:00:00 5.6 20 Sudoeste 35 Sudoeste 0 929.3 -0.5 99
2019-04-06 04:00:00 5.6 20 Sudoeste 33 Sudoeste 0.4 929.2 -0.5 99
2019-04-06 03:00:00 5.6 13 Oeste 22 Sudoeste 2.6 929.7 0.3 99
2019-04-06 02:00:00 5.9 12 Sudoeste 30 Oeste 1.4 929.8 1.1 98
2019-04-06 01:00:00 6.9 21 Sudoeste 36 Sudoeste 0 929.7 1.6 82
2019-04-06 00:00:00 7.5 21 Sudoeste 35 Sudoeste 0 929.4 1.7 82
2019-04-05 23:00:00 5.9 4 Sudoeste 12 Oeste 0 928.7 1.7 87
2019-04-05 22:00:00 6 6 Sur 12 Oeste 0 928.1 1.2 84
2019-04-05 21:00:00 6.8 7 Sudoeste 29 Sudoeste 0 927.7 2 77
2019-04-05 20:00:00 6.6 19 Sudoeste 31 Sudoeste 0 927 1.5 79
2019-04-05 19:00:00 4.9 15 Sudoeste 41 Noroeste 2.1 926.9 0.2 96
2019-04-05 18:00:00 10.2 18 Sudoeste 31 Sudoeste 0 925.7 -0.1 74
2019-04-05 17:00:00 7.4 13 Sudoeste 49 Oeste 1 925.5 -0.9 97
2019-04-05 16:00:00 9.6 31 Sudoeste 54 Sudoeste 0 926.7 -1.1 67
2019-04-05 15:00:00 9.8 17 Sudoeste 39 Sur 0 925.8 -2.5 73
2019-04-05 14:00:00 7.7 23 Sur 38 Sur 0.6 926.4 -1.2 85
2019-04-05 13:00:00 7.5 12 Sudoeste 26 Sudoeste 2.3 927.8 0.3 97
2019-04-05 12:00:00 8.5 15 Sudoeste 25 Sudoeste 0.3 928.3 0.4 82
2019-04-05 11:00:00 10.5 9 Oeste 18 Sudoeste 0 927.6 -0.2 62
2019-04-05 10:00:00 9.3 8 Oeste 20 Sudoeste 0 927.5 -0.2 66
2019-04-05 09:00:00 8.6 6 Sudoeste -- -- -- 927.9 0.1 66
2019-04-05 08:00:00 8.5 12 Sur 27 Sudoeste 0 927.8 -0.5 64
2019-04-05 07:00:00 8.7 14 Sudoeste 27 Sudoeste 0 927.7 -1.5 61
2019-04-05 06:00:00 8.5 10 Sudoeste 22 Sudoeste 0 927.8 -1.7 64
2019-04-05 05:00:00 9 13 Sudoeste 26 Sudoeste 0 928.3 -1 61
2019-04-05 04:00:00 8.8 12 Sudoeste 23 Sudoeste 0 929.2 0.1 59
2019-04-05 03:00:00 9 13 Sudoeste 30 Sudoeste 0 929.5 0.8 49
2019-04-05 02:00:00 9.7 21 Sudoeste 36 Sudoeste 0 929.3 0.5 46
2019-04-05 01:00:00 10.5 20 Sudoeste 36 Sudoeste 0 929.1 0.4 44
2019-04-05 00:00:00 11.4 16 Sudoeste 24 Sur 0 928.7 0.1 39
2019-04-04 23:00:00 12 14 Sur 25 Sur 0 928.8 0.3 37
2019-04-04 22:00:00 12.7 14 Sur 23 Sur 0 928.7 0.2 37
2019-04-04 21:00:00 13 10 Sudoeste 29 Oeste 0 928.6 0.5 37
2019-04-04 20:00:00 15.7 15 Sudoeste 36 Sudoeste 0 928.5 -- 32
2019-04-04 19:00:00 16.9 21 Sudoeste 35 Sudoeste 0 928.5 -- 31
2019-04-04 18:00:00 17.7 18 Sudoeste -- -- -- 928.1 -1.8 29
2019-04-04 17:00:00 -- -- -- -- -- -- -- -- --
2019-04-04 16:00:00 -- -- -- -- -- -- -- -- --
2019-04-04 15:00:00 15.9 6 Noroeste 23 Sudoeste 0 929.9 -0.5 34
2019-04-04 14:00:00 15.5 8 Sudoeste 22 Oeste 0 930.3 0.3 36
2019-04-04 13:00:00 14.3 2 Norte 19 Norte 0 930.6 1.2 37
2019-04-04 12:00:00 12.6 13 Nordeste 21 Nordeste 0 930.4 1.9 40
2019-04-04 11:00:00 10.9 10 Norte 19 Nordeste 0 930 2 46
2019-04-04 10:00:00 9 12 Nordeste 16 Nordeste 0 929.4 1.9 52
2019-04-04 09:00:00 5.9 0 Calma 10 Este 0 928.5 0.6 69
2019-04-04 08:00:00 5.4 5 Nordeste 10 Este 0 928 -0.3 61
2019-04-04 07:00:00 5.2 0 Calma 9 Nordeste 0 927.5 -1.3 61
2019-04-04 06:00:00 7.2 7 Nordeste 11 Este 0 927.9 -1.3 54
2019-04-04 05:00:00 7.9 5 Nordeste 10 Nordeste 0 928.3 -1.6 55
2019-04-04 04:00:00 9.6 0 Calma 8 Nordeste 0 928.8 -1.5 50
2019-04-04 03:00:00 11 3 Este 10 Norte 0 929.2 -1.4 49
2019-04-04 02:00:00 12.4 0 Calma 16 Noroeste 0 929.9 -1 48
2019-04-04 01:00:00 13.5 7 Noroeste 21 Noroeste 0 930.3 0.1 46
2019-04-04 00:00:00 14 8 Oeste 18 Oeste 0 930.6 0.8 46
2019-04-03 23:00:00 14.4 2 Oeste 19 Noroeste 0 930.9 1.2 44
2019-04-03 22:00:00 15.3 5 Sudoeste 16 Oeste 0 930.2 0.2 44
2019-04-03 21:00:00 16.5 11 Sudoeste 31 Sudoeste 0 929.8 -0.7 41
2019-04-03 20:00:00 17.7 22 Sudoeste 40 Oeste 0 929.7 -1.4 37
2019-04-03 19:00:00 18.9 21 Sudoeste 38 Oeste 0 930 -1.7 36
2019-04-03 18:00:00 18.7 20 Sudoeste 41 Oeste 0 930.5 -2.1 37
2019-04-03 17:00:00 18.8 19 Sudoeste 40 Oeste 0 931.1 -2.3 38
2019-04-03 16:00:00 19.2 19 Sudoeste 40 Sudoeste 0 931.7 -2.3 38
2019-04-03 15:00:00 18.6 19 Oeste 38 Sudoeste 0 932.6 -2 40
2019-04-03 14:00:00 17.4 21 Sudoeste 41 Sudoeste 0 933.4 -1.4 44
2019-04-03 13:00:00 16.7 16 Sudoeste 30 Sudoeste 0 934 -0.8 49
2019-04-03 12:00:00 15.3 -- -- -- -- 0 934.6 -0.8 61
2019-04-03 11:00:00 13.4 -- -- -- -- 0 934.8 -0.5 78
2019-04-03 10:00:00 10.3 -- -- -- -- 0 934.8 -1 99
2019-04-03 09:00:00 8.9 -- -- -- -- 0 935.4 -0.6 99
2019-04-03 08:00:00 8 -- -- -- -- 0 935.3 -1.4 99
2019-04-03 07:00:00 8.3 -- -- -- -- 0 935.8 -1.1 99
2019-04-03 06:00:00 9 -- -- -- -- 0 936 -2.5 97
2019-04-03 05:00:00 8.9 -- -- -- -- 0 936.7 -2.2 96
2019-04-03 04:00:00 8.9 -- -- -- -- 0 936.9 -2.5 94
2019-04-03 03:00:00 10 -- -- -- -- 0 938.5 -1.4 88
2019-04-03 02:00:00 10.8 -- -- -- -- 0 938.9 -1.3 83
2019-04-03 01:00:00 11.4 -- -- -- -- 0 939.4 -0.7 82
2019-04-03 00:00:00 12.1 -- -- -- -- 0 939.9 -0.6 76
2019-04-02 23:00:00 12.8 -- -- -- -- 0 940.2 0.3 70
2019-04-02 22:00:00 14.1 -- -- -- -- 0 940.1 0.2 62
2019-04-02 21:00:00 15.5 -- -- -- -- 0 940.5 0.4 51
2019-04-02 20:00:00 17.4 -- -- -- -- 0 939.9 -0.6 45
2019-04-02 19:00:00 18.2 -- -- -- -- 0 939.9 -1.2 42
2019-04-02 18:00:00 18.9 -- -- -- -- 0 940.1 -1.5 44
2019-04-02 17:00:00 18.2 -- -- -- -- 0 940.5 -1.5 46
2019-04-02 16:00:00 17.5 -- -- -- -- 0 941.1 -1.1 49
2019-04-02 15:00:00 16.6 -- -- -- -- 0 941.6 -1 49
2019-04-02 14:00:00 16.4 -- -- -- -- 0 942 -0.3 52
2019-04-02 13:00:00 14 -- -- -- -- 0 942.2 0.3 70
2019-04-02 12:00:00 12.9 -- -- -- -- 0 942.6 1 79
2019-04-02 11:00:00 12 -- -- -- -- 0 942.3 1.2 89
2019-04-02 10:00:00 11.8 -- -- -- -- 0 941.9 1 96
2019-04-02 09:00:00 10.9 -- -- -- -- 0 941.6 0.8 97
2019-04-02 08:00:00 10.3 -- -- -- -- 0 941.1 -0.3 96
2019-04-02 07:00:00 10.6 -- -- -- -- 0 940.9 -0.7 94
2019-04-02 06:00:00 11.4 -- -- -- -- 0 940.8 -1 94
2019-04-02 05:00:00 11.2 -- -- -- -- 0.1 941.4 -0.6 95
2019-04-02 04:00:00 11.9 -- -- -- -- 0 941.6 -0.3 86
2019-04-02 03:00:00 11.8 -- -- -- -- 0 941.8 -0.2 87
2019-04-02 02:00:00 11.6 -- -- -- -- 0 942 0 93
2019-04-02 01:00:00 11.9 -- -- -- -- 0.5 941.9 0.9 87
2019-04-02 00:00:00 13.1 -- -- -- -- 0 942 1.6 74
2019-04-01 23:00:00 13.5 -- -- -- -- 0 942 2.7 72
2019-04-01 22:00:00 13.5 -- -- -- -- 0 941 1.9 72
2019-04-01 21:00:00 13.7 -- -- -- -- 0 940.4 1 67
2019-04-01 20:00:00 15.6 -- -- -- -- 0.2 939.3 0 62
2019-04-01 19:00:00 16.4 -- -- -- -- 0 939.1 -0.3 57
2019-04-01 18:00:00 16.4 -- -- -- -- 0 939.4 -0.5 56
2019-04-01 17:00:00 18.8 -- -- -- -- 0 939.3 -0.7 46
2019-04-01 16:00:00 17.5 -- -- -- -- 0 939.4 -0.8 52
2019-04-01 15:00:00 17 -- -- -- -- 0.1 939.9 -0.2 56
2019-04-01 14:00:00 15.1 -- -- -- -- 0 940 0.6 65
2019-04-01 13:00:00 14.2 -- -- -- -- 0 940.2 1.5 75
2019-04-01 12:00:00 12.7 -- -- -- -- 0 940.1 2.4 90
2019-04-01 11:00:00 11.5 -- -- -- -- 0 939.4 2.4 99
2019-04-01 10:00:00 10.5 -- -- -- -- 0 938.7 1.6 99
2019-04-01 09:00:00 9.3 -- -- -- -- 0 937.7 0.7 99
2019-04-01 08:00:00 9 -- -- -- -- 0 937 -0.1 99
2019-04-01 07:00:00 9.7 -- -- -- -- 0 937.1 -0.2 99
2019-04-01 06:00:00 9.4 -- -- -- -- 0 937 -0.6 99
2019-04-01 05:00:00 9.6 -- -- -- -- 0 937.1 -0.5 99
2019-04-01 04:00:00 10.2 -- -- -- -- 0 937.3 -0.4 99
2019-04-01 03:00:00 10.7 -- -- -- -- 0 937.6 0.1 99
2019-04-01 02:00:00 10.8 -- -- -- -- 0 937.6 0.1 99
2019-04-01 01:00:00 10.6 -- -- -- -- 0 937.7 0.9 98
2019-04-01 00:00:00 11.2 -- -- -- -- 0 937.5 1 97
2019-03-31 23:00:00 11.4 -- -- -- -- 0 937.5 1.2 96
2019-03-31 22:00:00 11.5 -- -- -- -- 0 936.8 0.7 94
2019-03-31 21:00:00 11.8 -- -- -- -- 0.5 936.5 0.2 90
2019-03-31 20:00:00 12.8 -- -- -- -- 0 936.3 0 74
2019-03-31 19:00:00 13.2 -- -- -- -- 0 936.1 -0.3 70
2019-03-31 18:00:00 13.2 -- -- -- -- 0 936.3 -0.2 68
2019-03-31 17:00:00 13 -- -- -- -- 0 936.3 -0.9 67
2019-03-31 16:00:00 12.8 -- -- -- -- 0 936.4 -1.1 67
2019-03-31 15:00:00 12.2 -- -- -- -- 0 936.5 -1.2 70
2019-03-31 14:00:00 11.5 -- -- -- -- 0 937.2 -0.3 75
2019-03-31 13:00:00 11.4 -- -- -- -- 0 937.5 0.2 79
2019-03-31 12:00:00 11 -- -- -- -- 0 937.7 0.9 84
2019-03-31 11:00:00 10 -- -- -- -- 0 937.5 -0.4 98
2019-03-31 10:00:00 9.5 -- -- -- -- 0.3 937.3 -0.8 99
2019-03-31 09:00:00 9.4 -- -- -- -- 0.8 936.8 -1.6 99
2019-03-31 08:00:00 9.9 -- -- -- -- 3 937.9 -1.2 99
2019-03-31 07:00:00 10.2 -- -- -- -- 1.6 938.1 -1.4 99
2019-03-31 06:00:00 10.8 -- -- -- -- 2.4 938.4 -1.7 99
2019-03-31 05:00:00 11.2 -- -- -- -- 1.5 939.1 -1.5 99
2019-03-31 03:00:00 12.4 -- -- -- -- 0.1 940.1 -0.4 86
2019-03-31 01:00:00 14 -- -- -- -- 0 940.6 -0.4 63
2019-03-31 00:00:00 14.5 -- -- -- -- 0 940.7 -0.4 60
2019-03-30 23:00:00 14.1 -- -- -- -- 0 940.5 0.3 61
2019-03-30 22:00:00 15.2 -- -- -- -- 0 941 0.9 57
2019-03-30 21:00:00 16.9 -- -- -- -- 0 941.1 0.6 52
2019-03-30 20:00:00 17.2 -- -- -- -- 0 940.2 -0.3 52
2019-03-30 19:00:00 18.3 -- -- -- -- 0 940.1 -0.6 49
2019-03-30 18:00:00 19.5 -- -- -- -- 0 940.5 -1 46
2019-03-30 17:00:00 22.3 -- -- -- -- 0 940.5 -2 40
2019-03-30 16:00:00 23.2 -- -- -- -- 0 940.7 -2.7 40
2019-03-30 15:00:00 21.8 -- -- -- -- 0 941.5 -2.7 42
2019-03-30 14:00:00 20.5 -- -- -- -- 0 942.5 -2.3 44
2019-03-30 13:00:00 19.8 -- -- -- -- 0 943.4 -1 47
2019-03-30 12:00:00 17.7 -- -- -- -- 0 944.2 0.1 49
2019-03-30 11:00:00 16 -- -- -- -- 0 944.8 2.2 52
2019-03-30 10:00:00 13.7 -- -- -- -- 0 944.4 1.1 58
2019-03-30 09:00:00 10.7 -- -- -- -- 0 944.1 0.3 68
2019-03-30 08:00:00 6.1 -- -- -- -- 0 942.6 -1.3 88
2019-03-30 07:00:00 5.8 -- -- -- -- 0 943.3 -1.1 89
2019-03-30 06:00:00 7.6 -- -- -- -- 0 943.8 -0.9 80
2019-03-30 05:00:00 7.1 -- -- -- -- 0 943.9 -1.6 81
2019-03-30 04:00:00 7.6 -- -- -- -- 0 944.4 -1.6 78
2019-03-30 03:00:00 8.3 -- -- -- -- 0 944.7 -1.8 73
2019-03-30 02:00:00 9.2 -- -- -- -- 0 945.5 -0.7 67
2019-03-30 01:00:00 10.4 -- -- -- -- 0 946 -0.6 64
2019-03-30 00:00:00 11.7 -- -- -- -- 0 946.5 0.4 60
2019-03-29 23:00:00 12.3 -- -- -- -- 0 946.2 0.5 58
2019-03-29 22:00:00 14 -- -- -- -- 0 946.6 0.9 53
2019-03-29 21:00:00 14.5 -- -- -- -- 0 946.1 0.3 51
2019-03-29 20:00:00 15.6 -- -- -- -- 0 945.7 -0.3 49
2019-03-29 19:00:00 17.5 -- -- -- -- 0 945.7 -0.6 46
2019-03-29 18:00:00 19.3 -- -- -- -- 0 945.8 -1 43
2019-03-29 17:00:00 20.4 -- -- -- -- 0 946 -1.3 40
2019-03-29 16:00:00 19.2 -- -- -- -- 0 946.3 -1.6 40
2019-03-29 15:00:00 19.5 -- -- -- -- 0 946.8 -1.1 41
2019-03-29 14:00:00 17.5 -- -- -- -- 0 947.3 -1.1 41
2019-03-29 13:00:00 17.6 -- -- -- -- 0 947.9 -0.5 40
2019-03-29 12:00:00 16.7 -- -- -- -- 0 947.9 0.5 43
2019-03-29 11:00:00 13.7 -- -- -- -- 0 948.4 1.4 46
2019-03-29 10:00:00 11.9 -- -- -- -- 0 948.4 2 49
2019-03-29 09:00:00 8.9 -- -- -- -- 0 947.4 1.1 55
2019-03-29 08:00:00 5.7 -- -- -- -- 0 947 0.3 55
2019-03-29 07:00:00 5 -- -- -- -- 0 946.4 -0.6 57
2019-03-29 06:00:00 5.3 -- -- -- -- 0 946.3 -1.1 50
2019-03-29 05:00:00 6.9 -- -- -- -- 0 946.7 -1.4 41
2019-03-29 04:00:00 10.7 -- -- -- -- 0 947 -1.4 39
2019-03-29 03:00:00 7.3 -- -- -- -- 0 947.4 -1.4 42
2019-03-29 02:00:00 11.9 -- -- -- -- 0 948.1 -1.1 36
2019-03-29 01:00:00 11.5 -- -- -- -- 0 948.4 -0.7 39
2019-03-29 00:00:00 11.1 -- -- -- -- 0 948.8 -0.4 41
2019-03-28 23:00:00 12.7 -- -- -- -- 0 949.2 0.6 40
2019-03-28 22:00:00 13.1 -- -- -- -- 0 949.1 0.9 38
2019-03-28 21:00:00 13.9 -- -- -- -- 0 949.2 1.2 37
2019-03-28 20:00:00 15.1 -- -- -- -- 0 948.6 0.9 35
2019-03-28 19:00:00 17.4 -- -- -- -- 0 948.2 0.1 33
2019-03-28 18:00:00 20 -- -- -- -- 0 948 -0.5 34
2019-03-28 17:00:00 19.8 -- -- -- -- 0 947.7 -1.7 34
2019-03-28 16:00:00 20.2 -- -- -- -- 0 948.1 -1.9 33
2019-03-28 15:00:00 19.8 -- -- -- -- 0 948.5 -1.8 34
2019-03-28 14:00:00 19.4 -- -- -- -- 0 949.4 -0.7 34
2019-03-28 13:00:00 18.7 -- -- -- -- 0 950 0.1 34
2019-03-28 12:00:00 17.5 -- -- -- -- 0 950.3 1.1 35
2019-03-28 11:00:00 15.2 -- -- -- -- 0 950.1 2.2 38
2019-03-28 10:00:00 12 -- -- -- -- 0 949.9 2.1 40
2019-03-28 09:00:00 8.9 -- -- -- -- 0 949.2 1.1 47
2019-03-28 08:00:00 5.2 -- -- -- -- 0 947.9 -0.2 51
2019-03-28 07:00:00 4 -- -- -- -- 0 947.8 -0.8 52
2019-03-28 06:00:00 6.3 -- -- -- -- 0 948.1 -0.2 49
2019-03-28 05:00:00 6.4 -- -- -- -- 0 948.1 -0.3 50
2019-03-28 04:00:00 8.3 -- -- -- -- 0 948.6 -0.3 50
2019-03-28 03:00:00 7.7 -- -- -- -- 0 948.3 -0.7 50
2019-03-28 02:00:00 8 -- -- -- -- 0 948.4 -0.3 53
2019-03-28 01:00:00 8 -- -- -- -- 0 948.9 0.9 53
2019-03-28 00:00:00 11.1 -- -- -- -- 0 949 1.2 46
2019-03-27 23:00:00 12.2 -- -- -- -- 0 948.7 1.4 44
2019-03-27 22:00:00 12.8 -- -- -- -- 0 948 1.1 42
2019-03-27 21:00:00 13.3 -- -- -- -- 0 947.8 1.5 40
2019-03-27 20:00:00 14.9 -- -- -- -- 0 947.3 1.2 38
2019-03-27 19:00:00 16.6 -- -- -- -- 0 946.9 0.8 37
2019-03-27 18:00:00 17.7 -- -- -- -- 0 946.3 0.2 36
2019-03-27 17:00:00 17.9 -- -- -- -- 0 946.1 -0.5 35
2019-03-27 16:00:00 18.1 -- -- -- -- 0 946.1 -1 35
2019-03-27 15:00:00 17.5 -- -- -- -- 0 946.1 -1.3 35
2019-03-27 14:00:00 17.3 -- -- -- -- 0 946.6 -0.5 35
2019-03-27 13:00:00 16.1 -- -- -- -- 0 947.1 0.3 35
2019-03-27 12:00:00 15.5 -- -- -- -- 0 947.4 1.2 39
2019-03-27 11:00:00 14.3 -- -- -- -- 0 947.1 2 43
2019-03-27 10:00:00 12.5 -- -- -- -- 0 946.8 2.5 45
2019-03-27 09:00:00 11.3 -- -- -- -- 0 946.2 2.2 48
2019-03-27 08:00:00 7.1 -- -- -- -- 0 945.1 1.2 51
2019-03-27 07:00:00 6.4 -- -- -- -- 0 944.3 0.5 50
2019-03-27 06:00:00 8.4 -- -- -- -- 0 944 -0.1 47
2019-03-27 05:00:00 8.9 -- -- -- -- 0 943.9 0.2 46
2019-03-27 04:00:00 9.2 -- -- -- -- 0 943.8 0.1 49
2019-03-27 03:00:00 9.4 -- -- -- -- 0 944.1 0.7 53
2019-03-27 02:00:00 10.7 -- -- -- -- 0 943.7 -0.2 50
2019-03-27 01:00:00 12 -- -- -- -- 0 943.7 0.1 48
2019-03-27 00:00:00 11.2 -- -- -- -- 0 943.4 0.2 53
2019-03-26 23:00:00 12.2 -- -- -- -- 0 943.9 1.3 46
2019-03-26 22:00:00 13.8 -- -- -- -- 0 943.6 1.6 50
2019-03-26 21:00:00 14.7 -- -- -- -- 0 943.2 1.9 50
2019-03-26 20:00:00 15.8 -- -- -- -- 0 942.6 1.7 49
2019-03-26 19:00:00 17.9 -- -- -- -- -- 942 1.3 45
2019-03-26 18:00:00 19.9 -- -- -- -- 0 941.3 0.2 40
2019-03-26 17:00:00 21 -- -- -- -- -- 940.9 -0.5 37
2019-03-26 16:00:00 21.9 -- -- -- -- 0 940.7 -1.1 34
2019-03-26 15:00:00 22.1 -- -- -- -- 0 941.1 -0.9 32
2019-03-26 14:00:00 21.7 -- -- -- -- 0 941.4 -0.4 33
2019-03-26 13:00:00 20.9 -- -- -- -- 0 941.8 0.5 32
2019-03-26 12:00:00 20.5 -- -- -- -- 0 942 1 32
2019-03-26 11:00:00 20.3 -- -- -- -- 0 941.8 1.6 33
2019-03-26 10:00:00 18.9 -- -- -- -- 0 941.3 1.4 35
2019-03-26 09:00:00 16.5 -- -- -- -- 0 941 1 40
2019-03-26 08:00:00 11.6 -- -- -- -- 0 940.2 0.4 47
2019-03-26 07:00:00 11.3 -- -- -- -- 0 939.9 -0.2 49
2019-03-26 06:00:00 11.4 -- -- -- -- 0 940 -0.8 49
2019-03-26 05:00:00 11.8 -- -- -- -- 0 939.8 -1.8 49
2019-03-26 04:00:00 11.9 -- -- -- -- 0 940.1 -1.5 49
2019-03-26 03:00:00 12.4 -- -- -- -- 0 940.8 -1 49
2019-03-26 02:00:00 12.9 -- -- -- -- 0 941.6 -0.7 47
2019-03-26 01:00:00 13.6 -- -- -- -- 0 941.6 -0.9 46
2019-03-26 00:00:00 13 -- -- -- -- 0 941.8 -0.2 47
2019-03-25 23:00:00 13.6 -- -- -- -- 0 942.3 0.2 44
2019-03-25 22:00:00 15.5 -- -- -- -- 0 942.5 0.6 40
2019-03-25 21:00:00 18 -- -- -- -- 0 942 0.3 38
2019-03-25 20:00:00 18.3 -- -- -- -- 0 942.1 0.4 36
2019-03-25 19:00:00 20.2 -- -- -- -- 0 941.9 -0.4 34
2019-03-25 18:00:00 21.3 -- -- -- -- 0 941.7 -1.2 33
2019-03-25 17:00:00 22.3 -- -- -- -- 0 941.7 -2.4 33
2019-03-25 16:00:00 21.9 -- -- -- -- 0 942.3 -2.6 34
2019-03-25 15:00:00 21.7 -- -- -- -- 0 942.9 -2.5 34
2019-03-25 14:00:00 21.1 -- -- -- -- 0 944.1 -1.6 37
2019-03-25 13:00:00 20.6 -- -- -- -- 0 944.9 -0.6 38
2019-03-25 12:00:00 19.3 -- -- -- -- 0 945.4 0.6 40
2019-03-25 11:00:00 17.4 -- -- -- -- 0 945.7 1.6 47
2019-03-25 10:00:00 14.4 -- -- -- -- 0 945.5 1.6 56
2019-03-25 09:00:00 10.7 -- -- -- -- 0 944.8 1.2 63
2019-03-25 08:00:00 8.5 -- -- -- -- 0 944.1 0 68
2019-03-25 07:00:00 7.5 -- -- -- -- 0 943.9 -0.8 73
2019-03-25 06:00:00 6.8 -- -- -- -- 0 943.6 -1.5 73
2019-03-25 05:00:00 8.4 -- -- -- -- 0 944.1 -1.5 68
2019-03-25 04:00:00 8.6 -- -- -- -- 0 944.7 -1.2 64
2019-03-25 03:00:00 9 -- -- -- -- 0 945.1 -1.1 61
2019-03-25 02:00:00 10.2 -- -- -- -- 0 945.6 -0.7 57
2019-03-25 01:00:00 12 -- -- -- -- 0 945.9 -0.9 52
2019-03-25 00:00:00 13.3 -- -- -- -- 0 946.2 -0.2 51